createdAt,value
2022-11-20T00:03:41.842Z,8.73
2022-11-20T00:08:43.717Z,7.25
2022-11-20T00:13:46.120Z,6.60
2022-11-20T00:18:47.915Z,5.80
2022-11-20T00:23:53.141Z,6.13
2022-11-20T00:29:01.889Z,6.07
2022-11-20T00:34:03.520Z,6.53
2022-11-20T00:39:05.131Z,6.03
2022-11-20T00:44:06.655Z,5.95
2022-11-20T00:49:08.086Z,6.53
2022-11-20T00:54:09.620Z,5.88
2022-11-20T00:59:11.937Z,7.22
2022-11-20T01:04:13.462Z,5.78
2022-11-20T01:09:15.622Z,5.85
2022-11-20T01:14:19.409Z,6.75
2022-11-20T01:19:23.331Z,6.78
2022-11-20T01:24:26.106Z,6.13
2022-11-20T01:29:27.598Z,6.25
2022-11-20T01:34:29.089Z,6.82
2022-11-20T01:39:30.654Z,5.75
2022-11-20T01:45:02.052Z,6.30
2022-11-20T01:50:17.801Z,5.50
2022-11-20T01:55:24.740Z,6.07
2022-11-20T02:00:26.486Z,5.40
2022-11-20T02:05:37.013Z,5.50
2022-11-20T02:15:41.322Z,4.90
2022-11-20T02:20:48.279Z,4.35
2022-11-20T02:25:51.663Z,4.35
2022-11-20T02:30:53.134Z,4.43
2022-11-20T02:35:54.670Z,3.95
2022-11-20T02:40:56.144Z,4.72
2022-11-20T02:45:57.632Z,3.83
2022-11-20T02:50:59.068Z,3.97
2022-11-20T02:56:00.532Z,3.67
2022-11-20T03:01:02.099Z,4.55
2022-11-20T03:06:03.734Z,3.67
2022-11-20T03:11:08.299Z,3.90
2022-11-20T03:16:12.695Z,3.97
2022-11-20T03:21:15.786Z,4.00
2022-11-20T03:26:20.351Z,3.65
2022-11-20T03:31:25.031Z,3.95
2022-11-20T03:36:27.871Z,4.00
2022-11-20T03:41:31.626Z,4.03
2022-11-20T03:46:33.544Z,3.80
2022-11-20T03:51:36.762Z,3.97
2022-11-20T03:56:39.272Z,4.03
2022-11-20T04:01:43.201Z,3.72
2022-11-20T04:06:48.302Z,3.85
2022-11-20T04:11:49.750Z,3.28
2022-11-20T04:16:51.267Z,4.22
2022-11-20T04:21:52.705Z,4.30
2022-11-20T04:26:54.172Z,4.05
2022-11-20T04:31:55.586Z,3.90
2022-11-20T04:36:57.057Z,3.72
2022-11-20T04:42:16.963Z,3.85
2022-11-20T04:47:18.434Z,3.80
2022-11-20T04:52:19.944Z,4.00
2022-11-20T04:57:22.142Z,3.60
2022-11-20T05:02:24.348Z,3.40
2022-11-20T05:07:25.820Z,3.42
2022-11-20T05:12:27.355Z,2.88
2022-11-20T05:17:29.052Z,3.20
2022-11-20T05:22:30.542Z,2.40
2022-11-20T05:27:31.979Z,3.10
2022-11-20T05:32:33.504Z,3.42
2022-11-20T05:37:34.966Z,2.92
2022-11-20T05:42:36.654Z,2.42
2022-11-20T05:47:38.139Z,2.97
2022-11-20T05:52:39.612Z,3.00
2022-11-20T05:57:41.152Z,2.38
2022-11-20T06:02:45.642Z,2.88
2022-11-20T06:07:47.106Z,2.88
2022-11-20T06:12:48.552Z,2.17
2022-11-20T06:17:54.724Z,2.50
2022-11-20T06:22:56.259Z,2.20
2022-11-20T06:27:57.666Z,2.25
2022-11-20T06:32:59.106Z,2.13
2022-11-20T06:38:00.523Z,2.38
2022-11-20T06:43:01.972Z,2.85
2022-11-20T06:48:04.357Z,2.08
2022-11-20T06:53:06.306Z,1.95
2022-11-20T06:58:07.908Z,2.13
2022-11-20T07:03:11.011Z,2.20
2022-11-20T07:08:12.976Z,2.22
2022-11-20T07:13:15.143Z,1.88
2022-11-20T07:18:16.613Z,1.70
2022-11-20T07:23:18.067Z,2.33
2022-11-20T07:28:19.571Z,1.95
2022-11-20T07:33:21.298Z,2.13
2022-11-20T07:38:22.784Z,1.65
2022-11-20T07:43:25.149Z,1.98
2022-11-20T07:48:26.737Z,2.15
2022-11-20T07:53:28.187Z,2.22
2022-11-20T07:58:30.568Z,1.80
2022-11-20T08:03:32.072Z,2.10
2022-11-20T08:08:34.270Z,2.22
2022-11-20T08:13:55.615Z,1.95
2022-11-20T08:18:57.424Z,1.92
2022-11-20T08:24:02.118Z,4.05
2022-11-20T08:29:04.626Z,1.60
2022-11-20T08:34:09.217Z,2.28
2022-11-20T08:39:14.529Z,1.70
2022-11-20T08:44:15.937Z,2.13
2022-11-20T08:49:17.520Z,1.90
2022-11-20T08:54:20.901Z,2.40
2022-11-20T08:59:43.816Z,2.38
2022-11-20T09:04:43.756Z,2.08
2022-11-20T09:09:46.423Z,1.92
2022-11-20T09:14:52.185Z,1.70
2022-11-20T09:19:56.283Z,2.28
2022-11-20T09:24:57.721Z,2.13
2022-11-20T09:29:59.186Z,3.05
2022-11-20T09:40:08.293Z,2.67
2022-11-20T09:45:28.692Z,3.70
2022-11-20T09:50:42.114Z,2.67
2022-11-20T09:55:43.660Z,2.83
2022-11-20T10:00:45.603Z,2.90
2022-11-20T10:05:51.441Z,2.97
2022-11-20T10:11:07.851Z,2.75
2022-11-20T10:16:40.779Z,3.05
2022-11-20T10:21:45.735Z,3.38
2022-11-20T10:27:05.762Z,3.63
2022-11-20T10:32:19.887Z,3.20
2022-11-20T10:37:26.977Z,2.35
2022-11-20T10:42:43.588Z,2.60
2022-11-20T10:47:45.491Z,2.50
2022-11-20T10:53:06.397Z,2.30
2022-11-20T10:58:23.349Z,2.30
2022-11-20T11:03:31.644Z,2.60
2022-11-20T11:08:37.526Z,2.08
2022-11-20T11:13:39.145Z,2.28
2022-11-20T11:18:41.508Z,2.10
2022-11-20T11:23:46.832Z,1.88
2022-11-20T11:29:04.260Z,1.55
2022-11-20T11:34:12.483Z,2.20
2022-11-20T11:39:18.420Z,1.88
2022-11-20T11:44:41.515Z,1.30
2022-11-20T11:49:42.981Z,1.60
2022-11-20T11:54:54.232Z,1.20
2022-11-20T12:00:07.708Z,1.10
2022-11-20T12:05:33.071Z,1.10
2022-11-20T12:10:45.500Z,1.40
2022-11-20T12:15:48.963Z,1.35
2022-11-20T12:21:23.806Z,1.13
2022-11-20T12:26:53.181Z,1.02
2022-11-20T12:32:27.754Z,1.70
2022-11-20T12:37:47.850Z,0.45
2022-11-20T12:43:20.830Z,0.95
2022-11-20T12:48:38.575Z,1.00
2022-11-20T12:54:04.731Z,0.80
2022-11-20T12:59:15.554Z,0.70
2022-11-20T13:04:30.139Z,0.65
2022-11-20T13:09:33.942Z,0.60
2022-11-20T13:14:41.473Z,0.60
2022-11-20T13:19:47.421Z,0.50
2022-11-20T13:24:52.759Z,4.97
2022-11-20T13:30:21.903Z,0.98
2022-11-20T13:35:31.056Z,0.70
2022-11-20T13:40:33.493Z,2.00
2022-11-20T13:45:36.842Z,0.90
2022-11-20T13:50:41.908Z,0.60
2022-11-20T13:55:58.673Z,0.50
2022-11-20T14:01:11.948Z,0.50
2022-11-20T14:06:35.683Z,0.52
2022-11-20T14:11:37.110Z,0.60
2022-11-20T14:16:38.684Z,0.60
2022-11-20T14:21:40.178Z,0.47
2022-11-20T14:26:45.984Z,0.90
2022-11-20T14:31:54.217Z,0.60
2022-11-20T14:37:04.356Z,0.50
2022-11-20T14:42:16.908Z,0.50
2022-11-20T14:47:22.401Z,0.75
2022-11-20T14:52:26.830Z,0.73
2022-11-20T14:57:30.669Z,0.60
2022-11-20T15:02:33.193Z,0.50
2022-11-20T15:07:37.499Z,0.63
2022-11-20T15:12:46.750Z,0.50
2022-11-20T15:17:48.396Z,1.70
2022-11-20T15:22:49.873Z,0.80
2022-11-20T15:27:56.750Z,0.50
2022-11-20T15:32:58.206Z,0.93
2022-11-20T15:37:59.633Z,0.80
2022-11-20T15:43:06.740Z,1.10
2022-11-20T15:48:23.359Z,1.45
2022-11-20T15:53:24.995Z,1.95
2022-11-20T15:58:27.563Z,1.23
2022-11-20T16:03:30.366Z,1.20
2022-11-20T16:08:31.787Z,1.25
2022-11-20T16:13:51.962Z,1.20
2022-11-20T16:18:53.461Z,0.73
2022-11-20T16:23:55.063Z,1.45
2022-11-20T16:28:56.777Z,1.70
2022-11-20T16:34:01.252Z,1.60
2022-11-20T16:39:04.281Z,1.45
2022-11-20T16:44:11.089Z,3.65
2022-11-20T16:49:14.405Z,6.38
2022-11-20T16:54:20.515Z,1.70
2022-11-20T16:59:22.733Z,1.98
2022-11-20T17:04:24.574Z,1.42
2022-11-20T17:09:26.368Z,1.30
2022-11-20T17:14:27.858Z,1.50
2022-11-20T17:19:29.330Z,1.55
2022-11-20T17:24:32.214Z,1.65
2022-11-20T17:29:37.750Z,1.73
2022-11-20T17:34:42.258Z,1.55
2022-11-20T17:39:44.870Z,1.20
2022-11-20T17:44:47.520Z,1.50
2022-11-20T17:49:49.004Z,1.40
2022-11-20T17:54:52.587Z,1.60
2022-11-20T17:59:54.249Z,1.60
2022-11-20T18:04:55.761Z,1.02
2022-11-20T18:09:57.237Z,1.20
2022-11-20T18:14:58.793Z,1.38
2022-11-20T18:20:27.292Z,0.93
2022-11-20T18:25:21.869Z,0.98
2022-11-20T18:30:23.364Z,1.00
2022-11-20T18:35:26.701Z,0.98
2022-11-20T18:40:28.307Z,1.17
2022-11-20T18:45:30.379Z,1.63
2022-11-20T18:50:31.891Z,1.23
2022-11-20T18:55:33.397Z,1.85
2022-11-20T19:00:35.034Z,4.38
2022-11-20T19:05:36.733Z,1.40
2022-11-20T19:10:38.258Z,1.13
2022-11-20T19:15:40.383Z,1.40
2022-11-20T19:20:41.899Z,1.58
2022-11-20T19:25:43.747Z,1.30
2022-11-20T19:30:45.301Z,1.30
2022-11-20T19:35:50.770Z,2.25
2022-11-20T19:40:52.218Z,1.65
2022-11-20T19:45:53.710Z,1.33
2022-11-20T19:50:55.270Z,1.52
2022-11-20T19:55:58.152Z,1.17
2022-11-20T20:01:27.619Z,1.35
2022-11-20T20:06:30.047Z,1.38
2022-11-20T20:11:34.253Z,1.30
2022-11-20T20:16:36.386Z,1.00
2022-11-20T20:21:37.939Z,0.88
2022-11-20T20:26:40.197Z,1.58
2022-11-20T20:31:41.730Z,1.35
2022-11-20T20:36:43.245Z,1.02
2022-11-20T20:41:44.758Z,4.05
2022-11-20T20:46:46.234Z,1.73
2022-11-20T20:51:47.707Z,1.58
2022-11-20T20:56:51.457Z,1.20
2022-11-20T21:01:52.894Z,0.85
2022-11-20T21:06:54.380Z,1.20
2022-11-20T21:11:55.854Z,1.48
2022-11-20T21:16:57.798Z,1.25
2022-11-20T21:21:59.403Z,1.00
2022-11-20T21:27:03.067Z,1.70
2022-11-20T21:32:04.567Z,1.70
2022-11-20T21:37:06.048Z,1.08
2022-11-20T21:42:07.474Z,1.73
2022-11-20T21:47:08.916Z,1.20
2022-11-20T21:52:10.358Z,1.30
2022-11-20T21:57:11.946Z,1.38
2022-11-20T22:02:13.527Z,1.13
2022-11-20T22:07:15.008Z,0.70
2022-11-20T22:12:16.442Z,0.55
2022-11-20T22:17:37.888Z,0.70
2022-11-20T22:22:40.217Z,0.50
2022-11-20T22:27:41.696Z,0.77
2022-11-20T22:32:43.181Z,2.25
2022-11-20T22:37:44.623Z,1.40
2022-11-20T22:42:46.944Z,0.77
2022-11-20T22:47:48.392Z,1.10
2022-11-20T22:52:49.896Z,0.90
2022-11-20T22:57:51.369Z,0.98
2022-11-20T23:02:52.880Z,0.80
2022-11-20T23:07:54.322Z,0.60
2022-11-20T23:12:55.742Z,0.70
2022-11-20T23:17:57.204Z,1.02
2022-11-20T23:22:58.716Z,0.50
2022-11-20T23:28:00.187Z,0.70
2022-11-20T23:33:01.717Z,0.52
2022-11-20T23:38:03.249Z,0.80
2022-11-20T23:43:16.697Z,0.80
2022-11-20T23:48:19.705Z,1.13
2022-11-20T23:53:24.933Z,0.60
2022-11-20T23:58:31.431Z,0.60
